sensor_id;sensor_type;location;lat;lon;timestamp;temperature;humidity
41435;DHT22;27177;22.262;114.192;2023-02-20T00:01:00;17.10;99.90
41435;DHT22;27177;22.262;114.192;2023-02-20T00:03:26;17.10;99.90
41435;DHT22;27177;22.262;114.192;2023-02-20T00:05:53;17.10;99.90
41435;DHT22;27177;22.262;114.192;2023-02-20T00:08:19;17.10;99.90
41435;DHT22;27177;22.262;114.192;2023-02-20T00:10:47;17.00;99.90
41435;DHT22;27177;22.262;114.192;2023-02-20T00:13:14;17.00;99.90
41435;DHT22;27177;22.262;114.192;2023-02-20T00:15:41;17.00;99.90
41435;DHT22;27177;22.262;114.192;2023-02-20T00:18:07;17.00;99.90
41435;DHT22;27177;22.262;114.192;2023-02-20T00:20:34;17.10;99.90
41435;DHT22;27177;22.262;114.192;2023-02-20T00:23:02;17.10;99.90
41435;DHT22;27177;22.262;114.192;2023-02-20T00:25:28;17.10;99.90
41435;DHT22;27177;22.262;114.192;2023-02-20T00:27:54;17.20;99.90
41435;DHT22;27177;22.262;114.192;2023-02-20T00:30:21;17.20;99.90
41435;DHT22;27177;22.262;114.192;2023-02-20T00:32:49;17.30;99.90
41435;DHT22;27177;22.262;114.192;2023-02-20T00:35:16;17.30;99.90
41435;DHT22;27177;22.262;114.192;2023-02-20T00:37:42;17.30;99.90
41435;DHT22;27177;22.262;114.192;2023-02-20T00:40:09;17.30;99.90
41435;DHT22;27177;22.262;114.192;2023-02-20T00:42:36;17.40;99.90
41435;DHT22;27177;22.262;114.192;2023-02-20T00:45:02;17.40;99.90
41435;DHT22;27177;22.262;114.192;2023-02-20T00:47:29;17.40;99.90
41435;DHT22;27177;22.262;114.192;2023-02-20T00:49:55;17.40;99.90
41435;DHT22;27177;22.262;114.192;2023-02-20T00:52:22;17.40;99.90
41435;DHT22;27177;22.262;114.192;2023-02-20T00:54:48;17.50;99.90
41435;DHT22;27177;22.262;114.192;2023-02-20T01:06:13;17.60;99.90
41435;DHT22;27177;22.262;114.192;2023-02-20T01:08:39;17.60;99.90
41435;DHT22;27177;22.262;114.192;2023-02-20T01:11:06;17.70;99.90
41435;DHT22;27177;22.262;114.192;2023-02-20T01:13:36;17.70;99.90
41435;DHT22;27177;22.262;114.192;2023-02-20T01:16:03;17.70;99.90
41435;DHT22;27177;22.262;114.192;2023-02-20T01:18:29;17.70;99.90
41435;DHT22;27177;22.262;114.192;2023-02-20T01:20:55;17.70;99.90
41435;DHT22;27177;22.262;114.192;2023-02-20T01:23:23;17.70;99.90
41435;DHT22;27177;22.262;114.192;2023-02-20T01:25:49;17.70;99.90
41435;DHT22;27177;22.262;114.192;2023-02-20T01:28:16;17.60;99.90
41435;DHT22;27177;22.262;114.192;2023-02-20T01:30:42;17.70;99.90
41435;DHT22;27177;22.262;114.192;2023-02-20T01:33:08;17.70;99.90
41435;DHT22;27177;22.262;114.192;2023-02-20T01:35:34;17.80;99.90
41435;DHT22;27177;22.262;114.192;2023-02-20T01:38:01;17.90;99.90
41435;DHT22;27177;22.262;114.192;2023-02-20T01:40:32;17.80;99.90
41435;DHT22;27177;22.262;114.192;2023-02-20T01:42:59;17.90;99.90
41435;DHT22;27177;22.262;114.192;2023-02-20T01:45:32;17.90;99.90
41435;DHT22;27177;22.262;114.192;2023-02-20T01:47:58;17.80;99.90
41435;DHT22;27177;22.262;114.192;2023-02-20T01:53:15;17.80;99.90
41435;DHT22;27177;22.262;114.192;2023-02-20T02:01:32;17.80;99.90
41435;DHT22;27177;22.262;114.192;2023-02-20T02:06:35;17.80;99.90
41435;DHT22;27177;22.262;114.192;2023-02-20T02:11:46;17.90;99.90
41435;DHT22;27177;22.262;114.192;2023-02-20T02:14:17;17.90;99.90
41435;DHT22;27177;22.262;114.192;2023-02-20T02:19:56;18.00;99.90
41435;DHT22;27177;22.262;114.192;2023-02-20T02:25:00;17.90;99.90
41435;DHT22;27177;22.262;114.192;2023-02-20T02:35:30;17.90;99.90
41435;DHT22;27177;22.262;114.192;2023-02-20T02:38:08;17.90;99.90
41435;DHT22;27177;22.262;114.192;2023-02-20T02:40:43;17.90;99.90
41435;DHT22;27177;22.262;114.192;2023-02-20T02:45:47;17.70;99.90
41435;DHT22;27177;22.262;114.192;2023-02-20T02:48:17;17.70;99.90
41435;DHT22;27177;22.262;114.192;2023-02-20T02:53:20;17.70;99.90
41435;DHT22;27177;22.262;114.192;2023-02-20T02:55:47;17.80;99.90
41435;DHT22;27177;22.262;114.192;2023-02-20T02:58:13;17.90;99.90
41435;DHT22;27177;22.262;114.192;2023-02-20T03:00:41;18.00;99.90
41435;DHT22;27177;22.262;114.192;2023-02-20T03:05:48;18.10;99.90
41435;DHT22;27177;22.262;114.192;2023-02-20T03:08:52;18.00;99.90
41435;DHT22;27177;22.262;114.192;2023-02-20T03:11:14;18.10;99.90
41435;DHT22;27177;22.262;114.192;2023-02-20T03:19:00;18.30;99.90
41435;DHT22;27177;22.262;114.192;2023-02-20T03:21:35;18.20;99.90
41435;DHT22;27177;22.262;114.192;2023-02-20T03:24:08;18.20;99.90
41435;DHT22;27177;22.262;114.192;2023-02-20T03:26:49;18.40;99.90
41435;DHT22;27177;22.262;114.192;2023-02-20T03:29:36;18.30;99.90
41435;DHT22;27177;22.262;114.192;2023-02-20T03:32:31;18.30;99.90
41435;DHT22;27177;22.262;114.192;2023-02-20T03:35:17;18.40;99.90
41435;DHT22;27177;22.262;114.192;2023-02-20T03:38:01;18.50;99.90
41435;DHT22;27177;22.262;114.192;2023-02-20T03:40:47;18.40;99.90
41435;DHT22;27177;22.262;114.192;2023-02-20T03:43:32;18.60;99.90
41435;DHT22;27177;22.262;114.192;2023-02-20T03:46:02;18.60;99.90
41435;DHT22;27177;22.262;114.192;2023-02-20T03:48:37;18.60;99.90
41435;DHT22;27177;22.262;114.192;2023-02-20T03:51:05;18.60;99.90
41435;DHT22;27177;22.262;114.192;2023-02-20T03:53:38;18.70;99.90
41435;DHT22;27177;22.262;114.192;2023-02-20T03:56:06;18.70;99.90
41435;DHT22;27177;22.262;114.192;2023-02-20T03:58:37;18.80;99.90
41435;DHT22;27177;22.262;114.192;2023-02-20T04:01:05;18.90;99.90
41435;DHT22;27177;22.262;114.192;2023-02-20T04:03:35;18.90;99.90
41435;DHT22;27177;22.262;114.192;2023-02-20T04:06:06;18.90;99.90
41435;DHT22;27177;22.262;114.192;2023-02-20T04:13:27;19.00;99.90
41435;DHT22;27177;22.262;114.192;2023-02-20T04:15:54;19.00;99.90
41435;DHT22;27177;22.262;114.192;2023-02-20T04:18:22;19.10;99.90
41435;DHT22;27177;22.262;114.192;2023-02-20T04:20:51;19.20;99.90
41435;DHT22;27177;22.262;114.192;2023-02-20T04:23:22;19.20;99.90
41435;DHT22;27177;22.262;114.192;2023-02-20T04:25:51;19.30;99.90
41435;DHT22;27177;22.262;114.192;2023-02-20T04:28:18;19.40;99.90
41435;DHT22;27177;22.262;114.192;2023-02-20T04:30:45;19.30;99.90
41435;DHT22;27177;22.262;114.192;2023-02-20T04:33:12;19.40;99.90
41435;DHT22;27177;22.262;114.192;2023-02-20T04:35:39;19.40;99.90
41435;DHT22;27177;22.262;114.192;2023-02-20T04:38:05;19.50;99.90
41435;DHT22;27177;22.262;114.192;2023-02-20T04:40:32;19.50;99.90
41435;DHT22;27177;22.262;114.192;2023-02-20T04:42:58;19.60;99.90
41435;DHT22;27177;22.262;114.192;2023-02-20T04:45:24;19.70;99.90
41435;DHT22;27177;22.262;114.192;2023-02-20T04:47:51;19.80;99.90
41435;DHT22;27177;22.262;114.192;2023-02-20T04:50:27;19.70;99.90
41435;DHT22;27177;22.262;114.192;2023-02-20T04:52:54;19.70;99.90
41435;DHT22;27177;22.262;114.192;2023-02-20T04:55:20;19.80;99.90
41435;DHT22;27177;22.262;114.192;2023-02-20T04:57:47;19.90;99.90
41435;DHT22;27177;22.262;114.192;2023-02-20T05:00:14;19.90;99.90
41435;DHT22;27177;22.262;114.192;2023-02-20T05:02:44;19.90;99.90
41435;DHT22;27177;22.262;114.192;2023-02-20T05:05:16;20.00;99.90
41435;DHT22;27177;22.262;114.192;2023-02-20T05:07:43;20.00;99.90
41435;DHT22;27177;22.262;114.192;2023-02-20T05:10:13;20.10;99.90
41435;DHT22;27177;22.262;114.192;2023-02-20T05:12:39;20.00;99.90
41435;DHT22;27177;22.262;114.192;2023-02-20T05:17:41;20.10;99.90
41435;DHT22;27177;22.262;114.192;2023-02-20T05:20:12;20.00;99.90
41435;DHT22;27177;22.262;114.192;2023-02-20T05:22:39;20.10;99.90
41435;DHT22;27177;22.262;114.192;2023-02-20T05:25:05;20.10;99.90
41435;DHT22;27177;22.262;114.192;2023-02-20T05:27:31;20.20;99.90
41435;DHT22;27177;22.262;114.192;2023-02-20T05:29:58;20.30;99.90
41435;DHT22;27177;22.262;114.192;2023-02-20T05:32:27;20.30;99.90
41435;DHT22;27177;22.262;114.192;2023-02-20T05:34:53;20.40;99.90
41435;DHT22;27177;22.262;114.192;2023-02-20T05:37:20;20.50;99.90
41435;DHT22;27177;22.262;114.192;2023-02-20T05:39:48;20.50;99.90
41435;DHT22;27177;22.262;114.192;2023-02-20T05:42:14;20.50;99.90
41435;DHT22;27177;22.262;114.192;2023-02-20T05:44:41;20.60;99.90
41435;DHT22;27177;22.262;114.192;2023-02-20T05:47:07;20.50;99.90
41435;DHT22;27177;22.262;114.192;2023-02-20T05:49:34;20.50;99.90
41435;DHT22;27177;22.262;114.192;2023-02-20T05:52:00;20.60;99.90
41435;DHT22;27177;22.262;114.192;2023-02-20T05:54:27;20.60;99.90
41435;DHT22;27177;22.262;114.192;2023-02-20T05:56:54;20.60;99.90
41435;DHT22;27177;22.262;114.192;2023-02-20T05:59:21;20.60;99.90
41435;DHT22;27177;22.262;114.192;2023-02-20T06:01:48;20.70;99.90
41435;DHT22;27177;22.262;114.192;2023-02-20T06:04:20;20.80;99.90
41435;DHT22;27177;22.262;114.192;2023-02-20T06:06:46;20.80;99.90
41435;DHT22;27177;22.262;114.192;2023-02-20T06:09:12;20.90;99.90
41435;DHT22;27177;22.262;114.192;2023-02-20T06:11:49;21.00;99.90
41435;DHT22;27177;22.262;114.192;2023-02-20T06:14:15;21.00;99.90
41435;DHT22;27177;22.262;114.192;2023-02-20T06:16:43;21.10;99.90
41435;DHT22;27177;22.262;114.192;2023-02-20T06:19:10;21.10;99.90
41435;DHT22;27177;22.262;114.192;2023-02-20T06:21:36;21.20;99.90
41435;DHT22;27177;22.262;114.192;2023-02-20T06:24:05;21.20;99.90
41435;DHT22;27177;22.262;114.192;2023-02-20T06:26:31;21.20;99.90
41435;DHT22;27177;22.262;114.192;2023-02-20T06:28:57;21.30;99.90
41435;DHT22;27177;22.262;114.192;2023-02-20T06:31:25;21.30;99.90
41435;DHT22;27177;22.262;114.192;2023-02-20T06:33:51;21.30;99.90
41435;DHT22;27177;22.262;114.192;2023-02-20T06:36:28;21.30;99.90
41435;DHT22;27177;22.262;114.192;2023-02-20T06:38:54;21.30;99.90
41435;DHT22;27177;22.262;114.192;2023-02-20T06:46:59;21.40;99.90
41435;DHT22;27177;22.262;114.192;2023-02-20T06:52:01;21.40;99.90
41435;DHT22;27177;22.262;114.192;2023-02-20T06:54:27;21.50;99.90
41435;DHT22;27177;22.262;114.192;2023-02-20T06:56:54;21.50;99.90
41435;DHT22;27177;22.262;114.192;2023-02-20T06:59:21;21.50;99.90
41435;DHT22;27177;22.262;114.192;2023-02-20T07:01:51;21.50;99.90
41435;DHT22;27177;22.262;114.192;2023-02-20T07:04:21;21.40;99.90
41435;DHT22;27177;22.262;114.192;2023-02-20T07:14:30;21.50;99.90
41435;DHT22;27177;22.262;114.192;2023-02-20T07:16:56;21.60;99.90
41435;DHT22;27177;22.262;114.192;2023-02-20T07:21:58;21.60;99.90
41435;DHT22;27177;22.262;114.192;2023-02-20T07:24:24;21.70;99.90
41435;DHT22;27177;22.262;114.192;2023-02-20T07:27:12;21.70;99.90
41435;DHT22;27177;22.262;114.192;2023-02-20T07:29:43;21.70;99.90
41435;DHT22;27177;22.262;114.192;2023-02-20T07:32:09;21.80;99.90
41435;DHT22;27177;22.262;114.192;2023-02-20T07:34:36;21.80;99.90
41435;DHT22;27177;22.262;114.192;2023-02-20T07:37:02;21.90;99.90
41435;DHT22;27177;22.262;114.192;2023-02-20T07:39:29;22.00;99.90
41435;DHT22;27177;22.262;114.192;2023-02-20T07:41:55;22.10;99.90
41435;DHT22;27177;22.262;114.192;2023-02-20T07:44:22;22.20;99.90
41435;DHT22;27177;22.262;114.192;2023-02-20T07:46:48;22.20;99.90
41435;DHT22;27177;22.262;114.192;2023-02-20T07:49:14;22.30;99.90
41435;DHT22;27177;22.262;114.192;2023-02-20T07:51:40;22.30;99.90
41435;DHT22;27177;22.262;114.192;2023-02-20T07:54:26;22.40;99.90
41435;DHT22;27177;22.262;114.192;2023-02-20T07:56:53;22.30;99.90
41435;DHT22;27177;22.262;114.192;2023-02-20T07:59:22;22.20;99.90
41435;DHT22;27177;22.262;114.192;2023-02-20T08:02:08;22.20;99.90
41435;DHT22;27177;22.262;114.192;2023-02-20T08:04:34;22.10;99.90
41435;DHT22;27177;22.262;114.192;2023-02-20T08:07:00;22.10;99.90
41435;DHT22;27177;22.262;114.192;2023-02-20T08:09:27;22.10;99.90
41435;DHT22;27177;22.262;114.192;2023-02-20T08:12:13;21.90;99.90
41435;DHT22;27177;22.262;114.192;2023-02-20T08:14:39;21.80;99.90
41435;DHT22;27177;22.262;114.192;2023-02-20T08:17:05;21.70;99.90
41435;DHT22;27177;22.262;114.192;2023-02-20T08:19:42;21.60;99.90
41435;DHT22;27177;22.262;114.192;2023-02-20T08:22:09;21.50;99.90
41435;DHT22;27177;22.262;114.192;2023-02-20T08:24:35;21.40;99.90
41435;DHT22;27177;22.262;114.192;2023-02-20T08:29:39;21.20;99.90
41435;DHT22;27177;22.262;114.192;2023-02-20T08:32:06;21.20;99.90
41435;DHT22;27177;22.262;114.192;2023-02-20T08:34:32;21.20;99.90
41435;DHT22;27177;22.262;114.192;2023-02-20T08:36:58;21.10;99.90
41435;DHT22;27177;22.262;114.192;2023-02-20T08:41:52;21.00;99.90
41435;DHT22;27177;22.262;114.192;2023-02-20T08:44:18;21.00;99.90
41435;DHT22;27177;22.262;114.192;2023-02-20T08:46:45;20.90;99.90
41435;DHT22;27177;22.262;114.192;2023-02-20T08:49:12;20.90;99.90
41435;DHT22;27177;22.262;114.192;2023-02-20T08:51:38;20.90;99.90
41435;DHT22;27177;22.262;114.192;2023-02-20T08:54:04;20.80;99.90
41435;DHT22;27177;22.262;114.192;2023-02-20T08:56:31;20.80;99.90
41435;DHT22;27177;22.262;114.192;2023-02-20T08:58:57;20.70;99.90
41435;DHT22;27177;22.262;114.192;2023-02-20T09:01:23;20.70;99.90
41435;DHT22;27177;22.262;114.192;2023-02-20T09:03:50;20.60;99.90
41435;DHT22;27177;22.262;114.192;2023-02-20T09:06:16;20.50;99.90
41435;DHT22;27177;22.262;114.192;2023-02-20T09:08:42;20.50;99.90
41435;DHT22;27177;22.262;114.192;2023-02-20T09:13:42;20.30;99.90
41435;DHT22;27177;22.262;114.192;2023-02-20T09:16:08;20.20;99.90
41435;DHT22;27177;22.262;114.192;2023-02-20T09:18:35;20.20;99.90
41435;DHT22;27177;22.262;114.192;2023-02-20T09:21:01;20.10;99.90
41435;DHT22;27177;22.262;114.192;2023-02-20T09:23:27;20.00;99.90
41435;DHT22;27177;22.262;114.192;2023-02-20T09:25:54;20.00;99.90
41435;DHT22;27177;22.262;114.192;2023-02-20T09:28:20;19.90;99.90
41435;DHT22;27177;22.262;114.192;2023-02-20T09:30:46;19.90;99.90
41435;DHT22;27177;22.262;114.192;2023-02-20T09:33:12;19.80;99.90
41435;DHT22;27177;22.262;114.192;2023-02-20T09:35:39;19.70;99.90
41435;DHT22;27177;22.262;114.192;2023-02-20T09:38:05;19.60;99.90
41435;DHT22;27177;22.262;114.192;2023-02-20T09:40:32;19.50;99.90
41435;DHT22;27177;22.262;114.192;2023-02-20T09:45:25;19.40;99.90
41435;DHT22;27177;22.262;114.192;2023-02-20T09:50:32;19.30;99.90
41435;DHT22;27177;22.262;114.192;2023-02-20T09:53:04;19.20;99.90
41435;DHT22;27177;22.262;114.192;2023-02-20T09:55:35;19.10;99.90
41435;DHT22;27177;22.262;114.192;2023-02-20T09:58:04;19.00;99.90
41435;DHT22;27177;22.262;114.192;2023-02-20T10:00:31;19.00;99.90
41435;DHT22;27177;22.262;114.192;2023-02-20T10:05:37;18.80;99.90
41435;DHT22;27177;22.262;114.192;2023-02-20T10:08:03;18.80;99.90
41435;DHT22;27177;22.262;114.192;2023-02-20T10:10:31;18.70;99.90
41435;DHT22;27177;22.262;114.192;2023-02-20T10:23:11;18.30;99.90
41435;DHT22;27177;22.262;114.192;2023-02-20T10:28:29;18.20;99.90
41435;DHT22;27177;22.262;114.192;2023-02-20T10:38:28;18.00;99.90
41435;DHT22;27177;22.262;114.192;2023-02-20T10:46:25;17.90;99.90
41435;DHT22;27177;22.262;114.192;2023-02-20T11:01:42;17.80;99.90
41435;DHT22;27177;22.262;114.192;2023-02-20T11:21:02;17.60;99.90
41435;DHT22;27177;22.262;114.192;2023-02-20T11:28:45;17.50;99.90
41435;DHT22;27177;22.262;114.192;2023-02-20T11:31:20;17.50;99.90
41435;DHT22;27177;22.262;114.192;2023-02-20T11:33:48;17.50;99.90
41435;DHT22;27177;22.262;114.192;2023-02-20T11:36:36;17.50;99.90
41435;DHT22;27177;22.262;114.192;2023-02-20T11:39:03;17.50;99.90
41435;DHT22;27177;22.262;114.192;2023-02-20T11:44:18;17.50;99.90
41435;DHT22;27177;22.262;114.192;2023-02-20T11:46:45;17.50;99.90
41435;DHT22;27177;22.262;114.192;2023-02-20T11:49:29;17.40;99.90
41435;DHT22;27177;22.262;114.192;2023-02-20T11:59:41;17.40;99.90
41435;DHT22;27177;22.262;114.192;2023-02-20T12:04:44;17.30;99.90
41435;DHT22;27177;22.262;114.192;2023-02-20T12:07:21;17.30;99.90
41435;DHT22;27177;22.262;114.192;2023-02-20T12:09:50;17.30;99.90
41435;DHT22;27177;22.262;114.192;2023-02-20T12:12:18;17.20;99.90
41435;DHT22;27177;22.262;114.192;2023-02-20T12:17:32;17.20;99.90
41435;DHT22;27177;22.262;114.192;2023-02-20T12:22:32;17.20;99.90
41435;DHT22;27177;22.262;114.192;2023-02-20T12:41:13;17.20;99.90
41435;DHT22;27177;22.262;114.192;2023-02-20T12:46:42;17.10;99.90
41435;DHT22;27177;22.262;114.192;2023-02-20T12:49:16;17.20;99.90
41435;DHT22;27177;22.262;114.192;2023-02-20T12:54:33;17.10;99.90
41435;DHT22;27177;22.262;114.192;2023-02-20T13:03:05;17.20;99.90
41435;DHT22;27177;22.262;114.192;2023-02-20T13:04:59;17.20;99.90
41435;DHT22;27177;22.262;114.192;2023-02-20T13:10:32;17.30;99.90
41435;DHT22;27177;22.262;114.192;2023-02-20T13:20:56;17.40;99.90
41435;DHT22;27177;22.262;114.192;2023-02-20T13:25:50;17.40;99.90
41435;DHT22;27177;22.262;114.192;2023-02-20T13:33:31;17.40;99.90
41435;DHT22;27177;22.262;114.192;2023-02-20T13:35:58;17.50;99.90
41435;DHT22;27177;22.262;114.192;2023-02-20T13:38:25;17.40;99.90
41435;DHT22;27177;22.262;114.192;2023-02-20T13:53:37;17.40;99.90
41435;DHT22;27177;22.262;114.192;2023-02-20T13:56:03;17.40;99.90
41435;DHT22;27177;22.262;114.192;2023-02-20T13:58:30;17.40;99.90
41435;DHT22;27177;22.262;114.192;2023-02-20T14:00:56;17.40;99.90
41435;DHT22;27177;22.262;114.192;2023-02-20T14:03:27;17.30;99.90
41435;DHT22;27177;22.262;114.192;2023-02-20T14:08:28;17.30;99.90
41435;DHT22;27177;22.262;114.192;2023-02-20T14:10:57;17.30;99.90
41435;DHT22;27177;22.262;114.192;2023-02-20T14:13:28;17.30;99.90
41435;DHT22;27177;22.262;114.192;2023-02-20T14:15:56;17.30;99.90
41435;DHT22;27177;22.262;114.192;2023-02-20T14:18:26;17.30;99.90
41435;DHT22;27177;22.262;114.192;2023-02-20T14:20:56;17.20;99.90
41435;DHT22;27177;22.262;114.192;2023-02-20T14:23:24;17.20;99.90
41435;DHT22;27177;22.262;114.192;2023-02-20T14:25:58;17.20;99.90
41435;DHT22;27177;22.262;114.192;2023-02-20T14:33:59;17.10;99.90
41435;DHT22;27177;22.262;114.192;2023-02-20T14:39:12;17.10;99.90
41435;DHT22;27177;22.262;114.192;2023-02-20T14:41:50;17.10;99.90
41435;DHT22;27177;22.262;114.192;2023-02-20T14:44:17;17.00;99.90
41435;DHT22;27177;22.262;114.192;2023-02-20T14:46:43;17.00;99.90
41435;DHT22;27177;22.262;114.192;2023-02-20T14:51:36;17.00;99.90
41435;DHT22;27177;22.262;114.192;2023-02-20T14:56:29;16.90;99.90
41435;DHT22;27177;22.262;114.192;2023-02-20T14:58:56;16.90;99.90
41435;DHT22;27177;22.262;114.192;2023-02-20T15:04:02;17.00;99.90
41435;DHT22;27177;22.262;114.192;2023-02-20T15:06:34;17.00;99.90
41435;DHT22;27177;22.262;114.192;2023-02-20T15:09:01;16.90;99.90
41435;DHT22;27177;22.262;114.192;2023-02-20T15:11:28;16.90;99.90
41435;DHT22;27177;22.262;114.192;2023-02-20T15:13:54;16.90;99.90
41435;DHT22;27177;22.262;114.192;2023-02-20T15:16:26;16.90;99.90
41435;DHT22;27177;22.262;114.192;2023-02-20T15:18:53;16.90;99.90
41435;DHT22;27177;22.262;114.192;2023-02-20T15:24:32;16.90;99.90
41435;DHT22;27177;22.262;114.192;2023-02-20T15:27:20;16.90;99.90
41435;DHT22;27177;22.262;114.192;2023-02-20T15:32:22;17.00;99.90
41435;DHT22;27177;22.262;114.192;2023-02-20T15:34:50;17.00;99.90
41435;DHT22;27177;22.262;114.192;2023-02-20T15:37:19;17.00;99.90
41435;DHT22;27177;22.262;114.192;2023-02-20T15:39:45;17.00;99.90
41435;DHT22;27177;22.262;114.192;2023-02-20T15:42:15;17.00;99.90
41435;DHT22;27177;22.262;114.192;2023-02-20T15:44:42;17.00;99.90
41435;DHT22;27177;22.262;114.192;2023-02-20T15:47:09;17.00;99.90
41435;DHT22;27177;22.262;114.192;2023-02-20T15:49:35;16.90;99.90
41435;DHT22;27177;22.262;114.192;2023-02-20T15:52:02;16.90;99.90
41435;DHT22;27177;22.262;114.192;2023-02-20T15:54:28;16.90;99.90
41435;DHT22;27177;22.262;114.192;2023-02-20T15:56:54;17.00;99.90
41435;DHT22;27177;22.262;114.192;2023-02-20T15:59:20;17.00;99.90
41435;DHT22;27177;22.262;114.192;2023-02-20T16:01:47;17.00;99.90
41435;DHT22;27177;22.262;114.192;2023-02-20T16:04:14;16.90;99.90
41435;DHT22;27177;22.262;114.192;2023-02-20T16:06:40;16.90;99.90
41435;DHT22;27177;22.262;114.192;2023-02-20T16:09:08;16.90;99.90
41435;DHT22;27177;22.262;114.192;2023-02-20T16:11:37;16.90;99.90
41435;DHT22;27177;22.262;114.192;2023-02-20T16:14:04;16.80;99.90
41435;DHT22;27177;22.262;114.192;2023-02-20T16:16:32;16.80;99.90
41435;DHT22;27177;22.262;114.192;2023-02-20T16:19:00;16.80;99.90
41435;DHT22;27177;22.262;114.192;2023-02-20T16:21:26;16.70;99.90
41435;DHT22;27177;22.262;114.192;2023-02-20T16:23:52;16.70;99.90
41435;DHT22;27177;22.262;114.192;2023-02-20T16:26:22;16.70;99.90
41435;DHT22;27177;22.262;114.192;2023-02-20T16:28:58;16.60;99.90
41435;DHT22;27177;22.262;114.192;2023-02-20T16:34:09;16.60;99.90
41435;DHT22;27177;22.262;114.192;2023-02-20T16:36:36;16.60;99.90
41435;DHT22;27177;22.262;114.192;2023-02-20T16:39:02;16.60;99.90
41435;DHT22;27177;22.262;114.192;2023-02-20T16:41:28;16.50;99.90
41435;DHT22;27177;22.262;114.192;2023-02-20T16:43:55;16.50;99.90
41435;DHT22;27177;22.262;114.192;2023-02-20T16:46:21;16.50;99.90
41435;DHT22;27177;22.262;114.192;2023-02-20T16:48:47;16.40;99.90
41435;DHT22;27177;22.262;114.192;2023-02-20T16:51:14;16.40;99.90
41435;DHT22;27177;22.262;114.192;2023-02-20T16:53:46;16.40;99.90
41435;DHT22;27177;22.262;114.192;2023-02-20T16:56:12;16.30;99.90
41435;DHT22;27177;22.262;114.192;2023-02-20T16:58:39;16.30;99.90
41435;DHT22;27177;22.262;114.192;2023-02-20T17:01:25;16.30;99.90
41435;DHT22;27177;22.262;114.192;2023-02-20T17:03:51;16.20;99.90
41435;DHT22;27177;22.262;114.192;2023-02-20T17:06:17;16.20;99.90
41435;DHT22;27177;22.262;114.192;2023-02-20T17:08:46;16.20;99.90
41435;DHT22;27177;22.262;114.192;2023-02-20T17:11:12;16.20;99.90
41435;DHT22;27177;22.262;114.192;2023-02-20T17:13:39;16.10;99.90
41435;DHT22;27177;22.262;114.192;2023-02-20T17:16:05;16.10;99.90
41435;DHT22;27177;22.262;114.192;2023-02-20T17:18:31;16.10;99.90
41435;DHT22;27177;22.262;114.192;2023-02-20T17:20:57;16.10;99.90
41435;DHT22;27177;22.262;114.192;2023-02-20T17:23:24;16.10;99.90
41435;DHT22;27177;22.262;114.192;2023-02-20T17:25:50;16.10;99.90
41435;DHT22;27177;22.262;114.192;2023-02-20T17:28:16;16.00;99.90
41435;DHT22;27177;22.262;114.192;2023-02-20T17:30:43;16.00;99.90
41435;DHT22;27177;22.262;114.192;2023-02-20T17:33:12;15.90;99.90
41435;DHT22;27177;22.262;114.192;2023-02-20T17:35:40;16.00;99.90
41435;DHT22;27177;22.262;114.192;2023-02-20T17:38:08;15.90;99.90
41435;DHT22;27177;22.262;114.192;2023-02-20T17:40:34;15.90;99.90
41435;DHT22;27177;22.262;114.192;2023-02-20T17:43:02;15.90;99.90
41435;DHT22;27177;22.262;114.192;2023-02-20T17:45:29;15.90;99.90
41435;DHT22;27177;22.262;114.192;2023-02-20T17:47:55;15.90;99.90
41435;DHT22;27177;22.262;114.192;2023-02-20T17:50:22;15.90;99.90
41435;DHT22;27177;22.262;114.192;2023-02-20T17:52:51;15.90;99.90
41435;DHT22;27177;22.262;114.192;2023-02-20T17:55:22;15.90;99.90
41435;DHT22;27177;22.262;114.192;2023-02-20T17:57:48;15.90;99.90
41435;DHT22;27177;22.262;114.192;2023-02-20T18:00:15;15.80;99.90
41435;DHT22;27177;22.262;114.192;2023-02-20T18:02:44;15.90;99.90
41435;DHT22;27177;22.262;114.192;2023-02-20T18:05:11;15.80;99.90
41435;DHT22;27177;22.262;114.192;2023-02-20T18:07:37;15.80;99.90
41435;DHT22;27177;22.262;114.192;2023-02-20T18:10:03;15.80;99.90
41435;DHT22;27177;22.262;114.192;2023-02-20T18:15:05;15.80;99.90
41435;DHT22;27177;22.262;114.192;2023-02-20T18:17:32;15.80;99.90
41435;DHT22;27177;22.262;114.192;2023-02-20T18:19:59;15.80;99.90
41435;DHT22;27177;22.262;114.192;2023-02-20T18:22:25;15.80;99.90
41435;DHT22;27177;22.262;114.192;2023-02-20T18:24:52;15.80;99.90
41435;DHT22;27177;22.262;114.192;2023-02-20T18:27:18;15.80;99.90
41435;DHT22;27177;22.262;114.192;2023-02-20T18:29:44;15.80;99.90
41435;DHT22;27177;22.262;114.192;2023-02-20T18:32:10;15.80;99.90
41435;DHT22;27177;22.262;114.192;2023-02-20T18:34:39;15.80;99.90
41435;DHT22;27177;22.262;114.192;2023-02-20T18:37:05;15.80;99.90
41435;DHT22;27177;22.262;114.192;2023-02-20T18:39:32;15.70;99.90
41435;DHT22;27177;22.262;114.192;2023-02-20T18:41:58;15.70;99.90
41435;DHT22;27177;22.262;114.192;2023-02-20T18:44:24;15.70;99.90
41435;DHT22;27177;22.262;114.192;2023-02-20T18:46:50;15.70;99.90
41435;DHT22;27177;22.262;114.192;2023-02-20T18:49:17;15.70;99.90
41435;DHT22;27177;22.262;114.192;2023-02-20T18:51:43;15.60;99.90
41435;DHT22;27177;22.262;114.192;2023-02-20T18:54:13;15.60;99.90
41435;DHT22;27177;22.262;114.192;2023-02-20T18:56:44;15.60;99.90
41435;DHT22;27177;22.262;114.192;2023-02-20T18:59:10;15.60;99.90
41435;DHT22;27177;22.262;114.192;2023-02-20T19:01:39;15.60;99.90
41435;DHT22;27177;22.262;114.192;2023-02-20T19:04:05;15.60;99.90
41435;DHT22;27177;22.262;114.192;2023-02-20T19:06:33;15.60;99.90
41435;DHT22;27177;22.262;114.192;2023-02-20T19:09:02;15.60;99.90
41435;DHT22;27177;22.262;114.192;2023-02-20T19:11:28;15.60;99.90
41435;DHT22;27177;22.262;114.192;2023-02-20T19:13:57;15.60;99.90
41435;DHT22;27177;22.262;114.192;2023-02-20T19:18:59;15.60;99.90
41435;DHT22;27177;22.262;114.192;2023-02-20T19:23:59;15.60;99.90
41435;DHT22;27177;22.262;114.192;2023-02-20T19:26:26;15.50;99.90
41435;DHT22;27177;22.262;114.192;2023-02-20T19:28:53;15.50;99.90
41435;DHT22;27177;22.262;114.192;2023-02-20T19:31:20;15.50;99.90
41435;DHT22;27177;22.262;114.192;2023-02-20T19:33:47;15.60;99.90